Larvik — C6VC2 — position and weather

sailwx.info

Track history (hours):
 
Tides and Currents Weather Stations Pressure Air Temp Water Temp Dewpoint Dewpoint Depression Visibility Wind Speed Wind Dir Waves Ship Positions

Larvik

Last reported at 2015-Feb-09 12:32 UTC. Time now 2015-Mar-04 07:08 UTC.
Position N 25°40' W 079°47'.
Warning: this ship's position is 22 days out of date.

Length 214 m; draft 7 m.

Type: Tanker. MMSI: 308371000.

Date/timePositionNaut miles runAvg speedWind from/ knotsBaromVisibWave heightAir tempDewpointWater temp
2015-Feb-09 12:32N 25°40' W 079°47'1010.4
2015-Feb-09 11:33N 25°48' W 079°53'1111.1
2015-Feb-09 10:33N 25°58' W 079°59'1010.3
2015-Feb-09 09:33N 26°06' W 080°07'1 0.6
2015-Feb-09 08:24N 26°06' W 080°07'0 0.0
2015-Feb-09 07:24N 26°06' W 080°07'0 0.0
2015-Feb-09 06:30N 26°06' W 080°07'0 0.0
2015-Feb-09 05:30N 26°06' W 080°07'0 0.0
2015-Feb-09 04:30N 26°06' W 080°07'0 0.0
2015-Feb-09 03:30N 26°06' W 080°07'0 0.0
2015-Feb-09 02:30N 26°06' W 080°07'0 0.0
2015-Feb-09 01:30N 26°06' W 080°07'0 0.0
2015-Feb-09 00:30N 26°06' W 080°07'0 0.0
2015-Feb-08 23:33N 26°06' W 080°07'0 0.0
2015-Feb-08 22:24N 26°06' W 080°07'0 0.0
2015-Feb-08 21:24N 26°06' W 080°07'0 0.0
2015-Feb-08 20:24N 26°06' W 080°07'0 0.0
2015-Feb-08 19:24N 26°06' W 080°07'0 0.0
2015-Feb-08 18:24N 26°06' W 080°07'0 0.0
2015-Feb-08 17:24N 26°06' W 080°07'0 0.0
2015-Feb-08 16:24N 26°06' W 080°07'0 0.0
2015-Feb-08 15:30N 26°06' W 080°07'0 0.0
2015-Feb-08 14:30N 26°06' W 080°07'0 0.0
2015-Feb-08 13:30N 26°06' W 080°07'0 0.0
2015-Feb-08 12:33N 26°06' W 080°07'0 0.0
2015-Feb-08 11:33N 26°06' W 080°07'0 0.0
2015-Feb-08 10:33N 26°06' W 080°07'0 0.0
2015-Feb-08 09:33N 26°06' W 080°07'0 0.0
2015-Feb-08 08:33N 26°06' W 080°07'0 0.0
2015-Feb-08 07:33N 26°06' W 080°07'0 0.0
2015-Feb-08 06:24N 26°06' W 080°07'0 0.0
2015-Feb-08 05:24N 26°06' W 080°07'0 0.0
2015-Feb-08 04:24N 26°06' W 080°07'0 0.0
2015-Feb-08 03:24N 26°06' W 080°07'0 0.0
2015-Feb-08 02:24N 26°06' W 080°07'0 0.0
2015-Feb-08 01:30N 26°06' W 080°07'0 0.0
2015-Feb-08 00:31N 26°06' W 080°07'0 0.0
2015-Feb-07 23:30N 26°06' W 080°07'0 0.0
2015-Feb-07 22:33N 26°06' W 080°07'0 0.0
2015-Feb-07 21:33N 26°06' W 080°07'0 0.0
2015-Feb-07 20:30N 26°06' W 080°07'0 0.0
2015-Feb-07 19:33N 26°06' W 080°07'0 0.0
2015-Feb-07 18:33N 26°06' W 080°07'0 0.0
2015-Feb-07 17:33N 26°06' W 080°07'0 0.0
2015-Feb-07 16:33N 26°06' W 080°07'0 0.0
2015-Feb-07 15:24N 26°06' W 080°07'0 0.0
2015-Feb-07 14:27N 26°06' W 080°07'0 0.0
2015-Feb-07 13:27N 26°06' W 080°07'0 0.0
2015-Feb-07 12:30N 26°06' W 080°07'0 0.0
2015-Feb-07 11:27N 26°06' W 080°07'0 0.0
2015-Feb-07 10:30N 26°06' W 080°07'0 0.0
2015-Feb-07 09:30N 26°06' W 080°07'0 0.0
2015-Feb-07 08:33N 26°06' W 080°07'0 0.0
2015-Feb-07 07:33N 26°06' W 080°07'0 0.0
2015-Feb-07 06:33N 26°06' W 080°07'0 0.0
2015-Feb-07 05:33N 26°06' W 080°07'0 0.0
2015-Feb-07 04:24N 26°06' W 080°07'0 0.0
2015-Feb-07 03:33N 26°06' W 080°07'0 0.0
2015-Feb-07 02:24N 26°06' W 080°07'0 0.0
2015-Feb-07 01:24N 26°06' W 080°07'0 0.0
2015-Feb-07 00:27N 26°06' W 080°07'0 0.0
2015-Feb-06 23:27N 26°06' W 080°07'0 0.0
2015-Feb-06 22:30N 26°06' W 080°07'0 0.0
2015-Feb-06 21:30N 26°06' W 080°07'0 0.0
2015-Feb-06 20:30N 26°06' W 080°07'0 0.0
2015-Feb-06 19:33N 26°06' W 080°07'0 0.0
2015-Feb-06 18:30N 26°06' W 080°07'0 0.0
2015-Feb-06 17:33N 26°06' W 080°07'0 0.0
2015-Feb-06 16:33N 26°06' W 080°07'0 0.0
2015-Feb-06 15:33N 26°06' W 080°07'0 0.0
2015-Feb-06 14:33N 26°06' W 080°07'0 0.0
2015-Feb-06 13:24N 26°06' W 080°07'0 0.2
2015-Feb-06 12:33N 26°06' W 080°07'5 5.4
2015-Feb-06 11:34N 26°06' W 080°01'4 3.8
2015-Feb-06 10:33N 26°10' W 079°59'1010.1
2015-Feb-06 09:34N 26°19' W 079°56'10 9.7
2015-Feb-06 08:34N 26°28' W 079°52'10 9.9
2015-Feb-06 07:33N 26°38' W 079°49'12 9.5
2015-Feb-06 06:19N 26°49' W 079°45'7 9.4
2015-Feb-06 05:33N 26°56' W 079°42'  
2015-Jan-31 18:34N 26°15' W 079°24'1413.5
2015-Jan-31 17:33N 26°01' W 079°26'1513.4
2015-Jan-31 16:25N 25°46' W 079°29'  
Track history (hours):
 
Tides and Currents Weather Stations Pressure Air Temp Water Temp Dewpoint Dewpoint Depression Visibility Wind Speed Wind Dir Waves Ship Positions

Larvik

Last reported at 2015-Feb-09 12:32 UTC. Time now 2015-Mar-04 07:08 UTC.
Position N 25°40' W 079°47'.
Warning: this ship's position is 22 days out of date.

Length 214 m; draft 7 m.

Type: Tanker. MMSI: 308371000.

Date/timePositionNaut miles runAvg speedWind from/ knotsBaromVisibWave heightAir tempDewpointWater temp
2015-Feb-09 12:32N 25°40' W 079°47'1010.4
2015-Feb-09 11:33N 25°48' W 079°53'1111.1
2015-Feb-09 10:33N 25°58' W 079°59'1010.3
2015-Feb-09 09:33N 26°06' W 080°07'1 0.6
2015-Feb-09 08:24N 26°06' W 080°07'0 0.0
2015-Feb-09 07:24N 26°06' W 080°07'0 0.0
2015-Feb-09 06:30N 26°06' W 080°07'0 0.0
2015-Feb-09 05:30N 26°06' W 080°07'0 0.0
2015-Feb-09 04:30N 26°06' W 080°07'0 0.0
2015-Feb-09 03:30N 26°06' W 080°07'0 0.0
2015-Feb-09 02:30N 26°06' W 080°07'0 0.0
2015-Feb-09 01:30N 26°06' W 080°07'0 0.0
2015-Feb-09 00:30N 26°06' W 080°07'0 0.0
2015-Feb-08 23:33N 26°06' W 080°07'0 0.0
2015-Feb-08 22:24N 26°06' W 080°07'0 0.0
2015-Feb-08 21:24N 26°06' W 080°07'0 0.0
2015-Feb-08 20:24N 26°06' W 080°07'0 0.0
2015-Feb-08 19:24N 26°06' W 080°07'0 0.0
2015-Feb-08 18:24N 26°06' W 080°07'0 0.0
2015-Feb-08 17:24N 26°06' W 080°07'0 0.0
2015-Feb-08 16:24N 26°06' W 080°07'0 0.0
2015-Feb-08 15:30N 26°06' W 080°07'0 0.0
2015-Feb-08 14:30N 26°06' W 080°07'0 0.0
2015-Feb-08 13:30N 26°06' W 080°07'0 0.0
2015-Feb-08 12:33N 26°06' W 080°07'0 0.0
2015-Feb-08 11:33N 26°06' W 080°07'0 0.0
2015-Feb-08 10:33N 26°06' W 080°07'0 0.0
2015-Feb-08 09:33N 26°06' W 080°07'0 0.0
2015-Feb-08 08:33N 26°06' W 080°07'0 0.0
2015-Feb-08 07:33N 26°06' W 080°07'0 0.0
2015-Feb-08 06:24N 26°06' W 080°07'0 0.0
2015-Feb-08 05:24N 26°06' W 080°07'0 0.0
2015-Feb-08 04:24N 26°06' W 080°07'0 0.0
2015-Feb-08 03:24N 26°06' W 080°07'0 0.0
2015-Feb-08 02:24N 26°06' W 080°07'0 0.0
2015-Feb-08 01:30N 26°06' W 080°07'0 0.0
2015-Feb-08 00:31N 26°06' W 080°07'0 0.0
2015-Feb-07 23:30N 26°06' W 080°07'0 0.0
2015-Feb-07 22:33N 26°06' W 080°07'0 0.0
2015-Feb-07 21:33N 26°06' W 080°07'0 0.0
2015-Feb-07 20:30N 26°06' W 080°07'0 0.0
2015-Feb-07 19:33N 26°06' W 080°07'0 0.0
2015-Feb-07 18:33N 26°06' W 080°07'0 0.0
2015-Feb-07 17:33N 26°06' W 080°07'0 0.0
2015-Feb-07 16:33N 26°06' W 080°07'0 0.0
2015-Feb-07 15:24N 26°06' W 080°07'0 0.0
2015-Feb-07 14:27N 26°06' W 080°07'0 0.0
2015-Feb-07 13:27N 26°06' W 080°07'0 0.0
2015-Feb-07 12:30N 26°06' W 080°07'0 0.0
2015-Feb-07 11:27N 26°06' W 080°07'0 0.0
2015-Feb-07 10:30N 26°06' W 080°07'0 0.0
2015-Feb-07 09:30N 26°06' W 080°07'0 0.0
2015-Feb-07 08:33N 26°06' W 080°07'0 0.0
2015-Feb-07 07:33N 26°06' W 080°07'0 0.0
2015-Feb-07 06:33N 26°06' W 080°07'0 0.0
2015-Feb-07 05:33N 26°06' W 080°07'0 0.0
2015-Feb-07 04:24N 26°06' W 080°07'0 0.0
2015-Feb-07 03:33N 26°06' W 080°07'0 0.0
2015-Feb-07 02:24N 26°06' W 080°07'0 0.0
2015-Feb-07 01:24N 26°06' W 080°07'0 0.0
2015-Feb-07 00:27N 26°06' W 080°07'0 0.0
2015-Feb-06 23:27N 26°06' W 080°07'0 0.0
2015-Feb-06 22:30N 26°06' W 080°07'0 0.0
2015-Feb-06 21:30N 26°06' W 080°07'0 0.0
2015-Feb-06 20:30N 26°06' W 080°07'0 0.0
2015-Feb-06 19:33N 26°06' W 080°07'0 0.0
2015-Feb-06 18:30N 26°06' W 080°07'0 0.0
2015-Feb-06 17:33N 26°06' W 080°07'0 0.0
2015-Feb-06 16:33N 26°06' W 080°07'0 0.0
2015-Feb-06 15:33N 26°06' W 080°07'0 0.0
2015-Feb-06 14:33N 26°06' W 080°07'0 0.0
2015-Feb-06 13:24N 26°06' W 080°07'0 0.2
2015-Feb-06 12:33N 26°06' W 080°07'5 5.4
2015-Feb-06 11:34N 26°06' W 080°01'4 3.8
2015-Feb-06 10:33N 26°10' W 079°59'1010.1
2015-Feb-06 09:34N 26°19' W 079°56'10 9.7
2015-Feb-06 08:34N 26°28' W 079°52'10 9.9
2015-Feb-06 07:33N 26°38' W 079°49'12 9.5
2015-Feb-06 06:19N 26°49' W 079°45'7 9.4
2015-Feb-06 05:33N 26°56' W 079°42'  
2015-Jan-31 18:34N 26°15' W 079°24'1413.5
2015-Jan-31 17:33N 26°01' W 079°26'1513.4
2015-Jan-31 16:25N 25°46' W 079°29'  

Dump ship's entire track history